sensor_id;sensor_type;location;lat;lon;timestamp;pressure;altitude;pressure_sealevel;temperature;humidity
37778;BME280;23615;51.506;7.678;2023-02-23T00:02:00;99670.31;;;9.60;100.00
37778;BME280;23615;51.506;7.678;2023-02-23T00:04:30;99677.03;;;9.62;100.00
37778;BME280;23615;51.506;7.678;2023-02-23T00:06:56;99678.91;;;9.62;100.00
37778;BME280;23615;51.506;7.678;2023-02-23T00:09:21;99675.03;;;9.58;100.00
37778;BME280;23615;51.506;7.678;2023-02-23T00:11:54;99669.72;;;9.58;100.00
37778;BME280;23615;51.506;7.678;2023-02-23T00:14:24;99669.41;;;9.66;100.00
37778;BME280;23615;51.506;7.678;2023-02-23T00:16:52;99667.44;;;9.61;100.00
37778;BME280;23615;51.506;7.678;2023-02-23T00:19:18;99677.88;;;9.63;100.00
37778;BME280;23615;51.506;7.678;2023-02-23T00:21:44;99665.59;;;9.62;100.00
37778;BME280;23615;51.506;7.678;2023-02-23T00:24:11;99673.56;;;9.62;100.00
37778;BME280;23615;51.506;7.678;2023-02-23T00:26:42;99669.88;;;9.63;100.00
37778;BME280;23615;51.506;7.678;2023-02-23T00:29:27;99666.63;;;9.61;100.00
37778;BME280;23615;51.506;7.678;2023-02-23T00:31:52;99663.13;;;9.60;100.00
37778;BME280;23615;51.506;7.678;2023-02-23T00:34:19;99665.59;;;9.62;100.00
37778;BME280;23615;51.506;7.678;2023-02-23T00:36:52;99662.69;;;9.63;100.00
37778;BME280;23615;51.506;7.678;2023-02-23T00:39:22;99661.66;;;9.64;100.00
37778;BME280;23615;51.506;7.678;2023-02-23T00:41:53;99649.16;;;9.65;100.00
37778;BME280;23615;51.506;7.678;2023-02-23T00:44:20;99665.13;;;9.65;100.00
37778;BME280;23615;51.506;7.678;2023-02-23T00:46:47;99652.97;;;9.69;100.00
37778;BME280;23615;51.506;7.678;2023-02-23T00:49:16;99659.56;;;9.66;100.00
37778;BME280;23615;51.506;7.678;2023-02-23T00:51:41;99659.81;;;9.65;100.00
37778;BME280;23615;51.506;7.678;2023-02-23T00:54:08;99661.06;;;9.62;100.00
37778;BME280;23615;51.506;7.678;2023-02-23T00:56:34;99660.75;;;9.70;100.00
37778;BME280;23615;51.506;7.678;2023-02-23T00:58:59;99663.72;;;9.62;100.00
37778;BME280;23615;51.506;7.678;2023-02-23T01:01:25;99657.22;;;9.58;100.00
37778;BME280;23615;51.506;7.678;2023-02-23T01:03:50;99665.44;;;9.57;100.00
37778;BME280;23615;51.506;7.678;2023-02-23T01:06:17;99662.19;;;9.55;100.00
37778;BME280;23615;51.506;7.678;2023-02-23T01:08:46;99663.03;;;9.55;100.00
37778;BME280;23615;51.506;7.678;2023-02-23T01:11:17;99665.22;;;9.58;100.00
37778;BME280;23615;51.506;7.678;2023-02-23T01:13:45;99660.09;;;9.57;100.00
37778;BME280;23615;51.506;7.678;2023-02-23T01:16:16;99651.81;;;9.65;100.00
37778;BME280;23615;51.506;7.678;2023-02-23T01:18:43;99657.16;;;9.65;100.00
37778;BME280;23615;51.506;7.678;2023-02-23T01:21:32;99661.66;;;9.64;100.00
37778;BME280;23615;51.506;7.678;2023-02-23T01:23:58;99663.84;;;9.56;100.00
37778;BME280;23615;51.506;7.678;2023-02-23T01:26:26;99657.69;;;9.55;100.00
37778;BME280;23615;51.506;7.678;2023-02-23T01:28:54;99651.53;;;9.55;100.00
37778;BME280;23615;51.506;7.678;2023-02-23T01:31:21;99658.25;;;9.57;100.00
37778;BME280;23615;51.506;7.678;2023-02-23T01:33:47;99654.44;;;9.53;100.00
37778;BME280;23615;51.506;7.678;2023-02-23T01:36:16;99656.19;;;9.59;100.00
37778;BME280;23615;51.506;7.678;2023-02-23T01:38:42;99663.84;;;9.56;100.00
37778;BME280;23615;51.506;7.678;2023-02-23T01:41:08;99651.19;;;9.51;100.00
37778;BME280;23615;51.506;7.678;2023-02-23T01:43:33;99655.47;;;9.52;100.00
37778;BME280;23615;51.506;7.678;2023-02-23T01:45:58;99659.97;;;9.52;100.00
37778;BME280;23615;51.506;7.678;2023-02-23T01:48:27;99648.13;;;9.48;100.00
37778;BME280;23615;51.506;7.678;2023-02-23T01:51:11;99658.34;;;9.51;100.00
37778;BME280;23615;51.506;7.678;2023-02-23T01:54:06;99657.09;;;9.53;100.00
37778;BME280;23615;51.506;7.678;2023-02-23T01:56:35;99658.94;;;9.53;100.00
37778;BME280;23615;51.506;7.678;2023-02-23T01:59:08;99649.31;;;9.52;100.00
37778;BME280;23615;51.506;7.678;2023-02-23T02:01:36;99659.75;;;9.53;100.00
37778;BME280;23615;51.506;7.678;2023-02-23T02:04:05;99652.59;;;9.54;100.00
37778;BME280;23615;51.506;7.678;2023-02-23T02:06:31;99642.16;;;9.52;100.00
37778;BME280;23615;51.506;7.678;2023-02-23T02:09:01;99648.28;;;9.53;100.00
37778;BME280;23615;51.506;7.678;2023-02-23T02:11:31;99648.28;;;9.53;100.00
37778;BME280;23615;51.506;7.678;2023-02-23T02:14:12;99648.28;;;9.53;100.00
37778;BME280;23615;51.506;7.678;2023-02-23T02:22:35;99647.25;;;9.54;100.00
37778;BME280;23615;51.506;7.678;2023-02-23T02:25:23;99648.28;;;9.53;100.00
37778;BME280;23615;51.506;7.678;2023-02-23T02:36:19;99642.16;;;9.52;100.00
37778;BME280;23615;51.506;7.678;2023-02-23T02:38:59;99638.91;;;9.50;100.00
37778;BME280;23615;51.506;7.678;2023-02-23T02:41:46;99643.41;;;9.50;100.00
37778;BME280;23615;51.506;7.678;2023-02-23T02:44:36;99634.59;;;9.49;100.00
37778;BME280;23615;51.506;7.678;2023-02-23T02:47:18;99637.84;;;9.51;100.00
37778;BME280;23615;51.506;7.678;2023-02-23T02:50:13;99631.13;;;9.49;100.00
37778;BME280;23615;51.506;7.678;2023-02-23T02:53:08;99629.28;;;9.49;100.00
37778;BME280;23615;51.506;7.678;2023-02-23T02:55:37;99625.63;;;9.62;100.00
37778;BME280;23615;51.506;7.678;2023-02-23T02:58:05;99629.56;;;9.59;100.00
37778;BME280;23615;51.506;7.678;2023-02-23T03:00:40;99632.22;;;9.59;100.00
37778;BME280;23615;51.506;7.678;2023-02-23T03:04:17;99618.03;;;9.47;100.00
37778;BME280;23615;51.506;7.678;2023-02-23T03:06:46;99621.97;;;9.45;100.00
37778;BME280;23615;51.506;7.678;2023-02-23T03:09:34;99624.66;;;9.45;100.00
37778;BME280;23615;51.506;7.678;2023-02-23T03:12:26;99626.28;;;9.46;100.00
37778;BME280;23615;51.506;7.678;2023-02-23T03:15:28;99628.69;;;9.47;100.00
37778;BME280;23615;51.506;7.678;2023-02-23T03:21:38;99627.31;;;9.45;100.00
37778;BME280;23615;51.506;7.678;2023-02-23T03:24:44;99632.41;;;9.46;100.00
37778;BME280;23615;51.506;7.678;2023-02-23T03:33:19;99629.16;;;9.44;100.00
37778;BME280;23615;51.506;7.678;2023-02-23T03:36:14;99629.59;;;9.41;100.00
37778;BME280;23615;51.506;7.678;2023-02-23T03:39:18;99624.50;;;9.39;100.00
37778;BME280;23615;51.506;7.678;2023-02-23T03:42:10;99632.47;;;9.39;100.00
37778;BME280;23615;51.506;7.678;2023-02-23T03:44:56;99631.44;;;9.41;100.00
37778;BME280;23615;51.506;7.678;2023-02-23T03:47:42;99627.75;;;9.42;100.00
37778;BME280;23615;51.506;7.678;2023-02-23T03:50:42;99622.66;;;9.40;100.00
37778;BME280;23615;51.506;7.678;2023-02-23T03:53:41;99624.72;;;9.38;100.00
37778;BME280;23615;51.506;7.678;2023-02-23T03:56:28;99628.44;;;9.37;100.00
37778;BME280;23615;51.506;7.678;2023-02-23T03:59:16;99633.75;;;9.37;100.00
37778;BME280;23615;51.506;7.678;2023-02-23T04:02:03;99621.84;;;9.39;100.00
37778;BME280;23615;51.506;7.678;2023-02-23T04:04:49;99626.34;;;9.39;100.00
37778;BME280;23615;51.506;7.678;2023-02-23T04:07:35;99634.56;;;9.37;100.00
37778;BME280;23615;51.506;7.678;2023-02-23T04:10:22;99633.00;;;9.30;100.00
37778;BME280;23615;51.506;7.678;2023-02-23T04:13:16;99625.28;;;9.28;100.00
37778;BME280;23615;51.506;7.678;2023-02-23T04:18:25;99629.31;;;9.31;100.00
37778;BME280;23615;51.506;7.678;2023-02-23T04:20:53;99628.72;;;9.29;100.00
37778;BME280;23615;51.506;7.678;2023-02-23T04:23:18;99632.94;;;9.36;100.00
37778;BME280;23615;51.506;7.678;2023-02-23T04:25:43;99632.94;;;9.36;100.00
37778;BME280;23615;51.506;7.678;2023-02-23T04:28:09;99632.25;;;9.41;100.00
37778;BME280;23615;51.506;7.678;2023-02-23T04:30:34;99645.22;;;9.37;100.00
37778;BME280;23615;51.506;7.678;2023-02-23T04:32:59;99643.44;;;9.31;100.00
37778;BME280;23615;51.506;7.678;2023-02-23T04:35:26;99637.31;;;9.31;100.00
37778;BME280;23615;51.506;7.678;2023-02-23T04:37:53;99640.69;;;9.38;100.00
37778;BME280;23615;51.506;7.678;2023-02-23T04:40:18;99642.03;;;9.29;100.00
37778;BME280;23615;51.506;7.678;2023-02-23T04:42:43;99642.28;;;9.27;100.00
37778;BME280;23615;51.506;7.678;2023-02-23T04:45:09;99645.50;;;9.29;100.00
37778;BME280;23615;51.506;7.678;2023-02-23T04:47:35;99649.66;;;9.25;100.00
37778;BME280;23615;51.506;7.678;2023-02-23T04:50:00;99642.72;;;9.24;100.00
37778;BME280;23615;51.506;7.678;2023-02-23T04:52:26;99645.97;;;9.26;100.00
37778;BME280;23615;51.506;7.678;2023-02-23T04:54:51;99645.16;;;9.26;100.00
37778;BME280;23615;51.506;7.678;2023-02-23T04:57:16;99643.31;;;9.26;100.00
37778;BME280;23615;51.506;7.678;2023-02-23T04:59:42;99642.84;;;9.29;100.00
37778;BME280;23615;51.506;7.678;2023-02-23T05:02:07;99642.84;;;9.29;100.00
37778;BME280;23615;51.506;7.678;2023-02-23T05:04:33;99651.44;;;9.31;100.00
37778;BME280;23615;51.506;7.678;2023-02-23T05:06:59;99651.59;;;9.36;100.00
37778;BME280;23615;51.506;7.678;2023-02-23T05:09:25;99641.00;;;9.30;100.00
37778;BME280;23615;51.506;7.678;2023-02-23T05:11:50;99646.78;;;9.27;100.00
37778;BME280;23615;51.506;7.678;2023-02-23T05:14:16;99652.94;;;9.27;100.00
37778;BME280;23615;51.506;7.678;2023-02-23T05:16:41;99648.63;;;9.26;100.00
37778;BME280;23615;51.506;7.678;2023-02-23T05:19:06;99651.09;;;9.28;100.00
37778;BME280;23615;51.506;7.678;2023-02-23T05:21:32;99651.22;;;9.33;100.00
37778;BME280;23615;51.506;7.678;2023-02-23T05:23:57;99653.28;;;9.31;100.00
37778;BME280;23615;51.506;7.678;2023-02-23T05:26:22;99652.34;;;9.25;100.00
37778;BME280;23615;51.506;7.678;2023-02-23T05:28:48;99664.00;;;9.24;100.00
37778;BME280;23615;51.506;7.678;2023-02-23T05:31:13;99653.50;;;9.29;100.00
37778;BME280;23615;51.506;7.678;2023-02-23T05:33:39;99656.97;;;9.30;100.00
37778;BME280;23615;51.506;7.678;2023-02-23T05:36:10;99659.09;;;9.39;100.00
37778;BME280;23615;51.506;7.678;2023-02-23T05:38:36;99659.50;;;9.25;100.00
37778;BME280;23615;51.506;7.678;2023-02-23T05:41:11;99653.66;;;9.34;100.00
37778;BME280;23615;51.506;7.678;2023-02-23T05:43:36;99658.56;;;9.19;100.00
37778;BME280;23615;51.506;7.678;2023-02-23T05:46:12;99656.63;;;9.26;100.00
37778;BME280;23615;51.506;7.678;2023-02-23T05:48:38;99658.56;;;9.19;100.00
37778;BME280;23615;51.506;7.678;2023-02-23T05:51:06;99656.25;;;9.23;100.00
37778;BME280;23615;51.506;7.678;2023-02-23T05:53:32;99665.94;;;9.17;100.00
37778;BME280;23615;51.506;7.678;2023-02-23T05:55:57;99661.56;;;9.23;100.00
37778;BME280;23615;51.506;7.678;2023-02-23T05:58:23;99666.38;;;9.14;100.00
37778;BME280;23615;51.506;7.678;2023-02-23T06:00:48;99668.09;;;9.27;100.00
37778;BME280;23615;51.506;7.678;2023-02-23T06:03:14;99669.84;;;9.33;100.00
37778;BME280;23615;51.506;7.678;2023-02-23T06:05:40;99669.66;;;9.16;100.00
37778;BME280;23615;51.506;7.678;2023-02-23T06:08:06;99668.22;;;9.14;100.00
37778;BME280;23615;51.506;7.678;2023-02-23T06:10:32;99668.16;;;9.20;100.00
37778;BME280;23615;51.506;7.678;2023-02-23T06:12:57;99670.38;;;9.23;100.00
37778;BME280;23615;51.506;7.678;2023-02-23T06:15:22;99674.38;;;9.14;100.00
37778;BME280;23615;51.506;7.678;2023-02-23T06:17:48;99676.66;;;9.11;100.00
37778;BME280;23615;51.506;7.678;2023-02-23T06:20:13;99672.75;;;9.13;100.00
37778;BME280;23615;51.506;7.678;2023-02-23T06:22:39;99686.66;;;9.15;100.00
37778;BME280;23615;51.506;7.678;2023-02-23T06:25:04;99680.72;;;9.13;100.00
37778;BME280;23615;51.506;7.678;2023-02-23T06:27:30;99688.69;;;9.31;100.00
37778;BME280;23615;51.506;7.678;2023-02-23T06:29:56;99695.66;;;9.14;100.00
37778;BME280;23615;51.506;7.678;2023-02-23T06:32:21;99685.97;;;9.01;100.00
37778;BME280;23615;51.506;7.678;2023-02-23T06:34:46;99694.50;;;9.10;100.00
37778;BME280;23615;51.506;7.678;2023-02-23T06:37:12;99698.50;;;9.01;100.00
37778;BME280;23615;51.506;7.678;2023-02-23T06:39:37;99695.28;;;9.29;100.00
37778;BME280;23615;51.506;7.678;2023-02-23T06:42:02;99696.41;;;9.21;100.00
37778;BME280;23615;51.506;7.678;2023-02-23T06:44:27;99699.53;;;9.18;100.00
37778;BME280;23615;51.506;7.678;2023-02-23T06:46:53;99703.66;;;9.14;100.00
37778;BME280;23615;51.506;7.678;2023-02-23T06:49:18;99702.47;;;9.10;100.00
37778;BME280;23615;51.506;7.678;2023-02-23T06:51:44;99709.69;;;9.03;100.00
37778;BME280;23615;51.506;7.678;2023-02-23T06:54:09;99714.88;;;8.98;100.00
37778;BME280;23615;51.506;7.678;2023-02-23T06:56:34;99715.47;;;9.00;100.00
37778;BME280;23615;51.506;7.678;2023-02-23T06:58:59;99716.66;;;9.04;100.00
37778;BME280;23615;51.506;7.678;2023-02-23T07:01:25;99713.84;;;8.99;100.00
37778;BME280;23615;51.506;7.678;2023-02-23T07:03:50;99716.06;;;9.02;100.00
37778;BME280;23615;51.506;7.678;2023-02-23T07:06:17;99716.06;;;9.02;100.00
37778;BME280;23615;51.506;7.678;2023-02-23T07:08:42;99720.34;;;9.03;100.00
37778;BME280;23615;51.506;7.678;2023-02-23T07:11:11;99721.91;;;9.11;100.00
37778;BME280;23615;51.506;7.678;2023-02-23T07:13:38;99720.94;;;9.05;100.00
37778;BME280;23615;51.506;7.678;2023-02-23T07:16:03;99732.91;;;9.14;100.00
37778;BME280;23615;51.506;7.678;2023-02-23T07:18:29;99722.44;;;9.19;100.00
37778;BME280;23615;51.506;7.678;2023-02-23T07:20:54;99730.03;;;9.16;100.00
37778;BME280;23615;51.506;7.678;2023-02-23T07:23:20;99736.16;;;8.98;100.00
37778;BME280;23615;51.506;7.678;2023-02-23T07:25:49;99738.00;;;8.97;100.00
37778;BME280;23615;51.506;7.678;2023-02-23T07:28:14;99729.88;;;9.11;100.00
37778;BME280;23615;51.506;7.678;2023-02-23T07:30:40;99731.66;;;8.98;100.00
37778;BME280;23615;51.506;7.678;2023-02-23T07:33:05;99742.94;;;8.94;100.00
37778;BME280;23615;51.506;7.678;2023-02-23T07:35:30;99742.38;;;8.92;100.00
37778;BME280;23615;51.506;7.678;2023-02-23T07:37:56;99735.44;;;8.91;100.00
37778;BME280;23615;51.506;7.678;2023-02-23T07:40:21;99731.84;;;8.79;100.00
37778;BME280;23615;51.506;7.678;2023-02-23T07:42:46;99742.91;;;9.00;100.00
37778;BME280;23615;51.506;7.678;2023-02-23T07:45:12;99751.16;;;9.11;100.00
37778;BME280;23615;51.506;7.678;2023-02-23T07:47:37;99752.28;;;9.03;100.00
37778;BME280;23615;51.506;7.678;2023-02-23T07:50:04;99747.97;;;9.02;100.00
37778;BME280;23615;51.506;7.678;2023-02-23T07:52:34;99754.28;;;9.08;100.00
37778;BME280;23615;51.506;7.678;2023-02-23T07:54:59;99749.53;;;8.91;100.00
37778;BME280;23615;51.506;7.678;2023-02-23T07:57:24;99756.63;;;8.97;100.00
37778;BME280;23615;51.506;7.678;2023-02-23T07:59:50;99765.81;;;9.20;100.00
37778;BME280;23615;51.506;7.678;2023-02-23T08:02:16;99758.72;;;9.14;100.00
37778;BME280;23615;51.506;7.678;2023-02-23T08:04:41;99766.78;;;9.07;100.00
37778;BME280;23615;51.506;7.678;2023-02-23T08:07:08;99767.13;;;9.11;100.00
37778;BME280;23615;51.506;7.678;2023-02-23T08:09:33;99768.69;;;9.00;100.00
37778;BME280;23615;51.506;7.678;2023-02-23T08:12:02;99769.56;;;8.94;100.00
37778;BME280;23615;51.506;7.678;2023-02-23T08:14:27;99774.72;;;8.89;100.00
37778;BME280;23615;51.506;7.678;2023-02-23T08:16:53;99769.34;;;8.95;100.00
37778;BME280;23615;51.506;7.678;2023-02-23T08:19:18;99773.63;;;8.96;100.00
37778;BME280;23615;51.506;7.678;2023-02-23T08:21:47;99772.59;;;8.97;100.00
37778;BME280;23615;51.506;7.678;2023-02-23T08:24:12;99773.91;;;8.88;100.00
37778;BME280;23615;51.506;7.678;2023-02-23T08:26:38;99779.63;;;8.92;100.00
37778;BME280;23615;51.506;7.678;2023-02-23T08:29:03;99780.78;;;8.96;100.00
37778;BME280;23615;51.506;7.678;2023-02-23T08:31:29;99782.22;;;8.98;100.00
37778;BME280;23615;51.506;7.678;2023-02-23T08:33:54;99787.31;;;9.00;100.00
37778;BME280;23615;51.506;7.678;2023-02-23T08:36:20;99789.31;;;9.05;100.00
37778;BME280;23615;51.506;7.678;2023-02-23T08:38:45;99793.88;;;8.97;100.00
37778;BME280;23615;51.506;7.678;2023-02-23T08:41:11;99790.38;;;8.79;100.00
37778;BME280;23615;51.506;7.678;2023-02-23T08:43:36;99792.16;;;8.85;100.00
37778;BME280;23615;51.506;7.678;2023-02-23T08:46:04;99792.63;;;8.75;100.00
37778;BME280;23615;51.506;7.678;2023-02-23T08:48:29;99793.63;;;8.81;100.00
37778;BME280;23615;51.506;7.678;2023-02-23T08:50:56;99794.59;;;8.86;100.00
37778;BME280;23615;51.506;7.678;2023-02-23T08:53:21;99792.34;;;8.83;100.00
37778;BME280;23615;51.506;7.678;2023-02-23T08:56:00;99795.16;;;8.70;100.00
37778;BME280;23615;51.506;7.678;2023-02-23T08:58:26;99799.97;;;8.80;100.00
37778;BME280;23615;51.506;7.678;2023-02-23T09:00:52;99803.94;;;8.95;100.00
37778;BME280;23615;51.506;7.678;2023-02-23T09:03:19;99806.66;;;8.89;100.00
37778;BME280;23615;51.506;7.678;2023-02-23T09:05:45;99815.66;;;8.88;100.00
37778;BME280;23615;51.506;7.678;2023-02-23T09:08:11;99808.22;;;8.96;100.00
37778;BME280;23615;51.506;7.678;2023-02-23T09:10:37;99813.75;;;8.95;100.00
37778;BME280;23615;51.506;7.678;2023-02-23T09:13:03;99810.00;;;8.78;100.00
37778;BME280;23615;51.506;7.678;2023-02-23T09:15:28;99811.97;;;8.89;100.00
37778;BME280;23615;51.506;7.678;2023-02-23T09:17:58;99819.19;;;8.82;100.00
37778;BME280;23615;51.506;7.678;2023-02-23T09:20:24;99821.31;;;8.73;100.00
37778;BME280;23615;51.506;7.678;2023-02-23T09:22:51;99817.72;;;8.86;100.00
37778;BME280;23615;51.506;7.678;2023-02-23T09:25:18;99823.66;;;8.88;100.00
37778;BME280;23615;51.506;7.678;2023-02-23T09:27:50;99825.56;;;8.81;100.00
37778;BME280;23615;51.506;7.678;2023-02-23T09:30:18;99821.47;;;8.78;100.00
37778;BME280;23615;51.506;7.678;2023-02-23T09:32:45;99825.16;;;8.77;100.00
37778;BME280;23615;51.506;7.678;2023-02-23T09:35:11;99826.25;;;8.70;100.00
37778;BME280;23615;51.506;7.678;2023-02-23T09:37:37;99826.56;;;8.80;100.00
37778;BME280;23615;51.506;7.678;2023-02-23T09:40:02;99829.44;;;8.78;100.00
37778;BME280;23615;51.506;7.678;2023-02-23T09:42:32;99828.25;;;8.74;100.00
37778;BME280;23615;51.506;7.678;2023-02-23T09:45:08;99825.16;;;8.77;100.00
37778;BME280;23615;51.506;7.678;2023-02-23T09:47:47;99830.13;;;8.74;100.00
37778;BME280;23615;51.506;7.678;2023-02-23T09:50:19;99833.78;;;8.73;100.00
37778;BME280;23615;51.506;7.678;2023-02-23T09:52:50;99834.41;;;8.99;100.00
37778;BME280;23615;51.506;7.678;2023-02-23T09:55:16;99829.09;;;8.99;100.00
37778;BME280;23615;51.506;7.678;2023-02-23T09:57:44;99831.34;;;8.96;100.00
37778;BME280;23615;51.506;7.678;2023-02-23T10:00:22;99840.38;;;8.95;100.00
37778;BME280;23615;51.506;7.678;2023-02-23T10:05:48;99842.06;;;8.89;100.00
37778;BME280;23615;51.506;7.678;2023-02-23T10:11:17;99839.88;;;9.05;100.00
37778;BME280;23615;51.506;7.678;2023-02-23T10:14:06;99844.38;;;9.04;100.00
37778;BME280;23615;51.506;7.678;2023-02-23T10:16:52;99846.00;;;9.05;100.00
37778;BME280;23615;51.506;7.678;2023-02-23T10:22:06;99845.31;;;8.91;100.00
37778;BME280;23615;51.506;7.678;2023-02-23T10:24:45;99846.63;;;9.07;100.00
37778;BME280;23615;51.506;7.678;2023-02-23T10:27:20;99852.09;;;9.12;100.00
37778;BME280;23615;51.506;7.678;2023-02-23T10:29:57;99854.94;;;9.17;100.00
37778;BME280;23615;51.506;7.678;2023-02-23T10:32:39;99859.78;;;9.20;100.00
37778;BME280;23615;51.506;7.678;2023-02-23T10:35:17;99857.69;;;9.04;100.00
37778;BME280;23615;51.506;7.678;2023-02-23T10:37:45;99869.09;;;9.11;100.00
37778;BME280;23615;51.506;7.678;2023-02-23T10:40:19;99865.50;;;8.99;100.00
37778;BME280;23615;51.506;7.678;2023-02-23T10:42:46;99854.22;;;8.79;100.00
37778;BME280;23615;51.506;7.678;2023-02-23T10:45:17;99862.31;;;8.90;100.00
37778;BME280;23615;51.506;7.678;2023-02-23T10:47:49;99860.84;;;8.94;100.00
37778;BME280;23615;51.506;7.678;2023-02-23T10:50:15;99855.16;;;8.91;100.00
37778;BME280;23615;51.506;7.678;2023-02-23T10:52:44;99861.50;;;8.90;100.00
37778;BME280;23615;51.506;7.678;2023-02-23T10:55:30;99861.81;;;9.00;100.00
37778;BME280;23615;51.506;7.678;2023-02-23T10:58:01;99863.00;;;9.04;100.00
37778;BME280;23615;51.506;7.678;2023-02-23T11:00:29;99861.44;;;8.96;100.00
37778;BME280;23615;51.506;7.678;2023-02-23T11:02:58;99856.50;;;9.00;100.00
37778;BME280;23615;51.506;7.678;2023-02-23T11:05:35;99850.41;;;8.93;100.00
37778;BME280;23615;51.506;7.678;2023-02-23T11:08:10;99858.13;;;9.01;100.00
37778;BME280;23615;51.506;7.678;2023-02-23T11:10:36;99854.13;;;8.92;100.00
37778;BME280;23615;51.506;7.678;2023-02-23T11:13:01;99857.97;;;8.96;100.00
37778;BME280;23615;51.506;7.678;2023-02-23T11:15:31;99856.22;;;9.08;100.00
37778;BME280;23615;51.506;7.678;2023-02-23T11:18:02;99859.50;;;9.10;100.00
37778;BME280;23615;51.506;7.678;2023-02-23T11:20:34;99852.00;;;9.00;100.00
37778;BME280;23615;51.506;7.678;2023-02-23T11:23:09;99857.69;;;9.04;100.00
37778;BME280;23615;51.506;7.678;2023-02-23T11:25:35;99863.66;;;8.99;100.00
37778;BME280;23615;51.506;7.678;2023-02-23T11:28:02;99859.66;;;8.90;100.00
37778;BME280;23615;51.506;7.678;2023-02-23T11:30:34;99863.66;;;8.99;100.00
37778;BME280;23615;51.506;7.678;2023-02-23T11:33:02;99860.47;;;8.91;100.00
37778;BME280;23615;51.506;7.678;2023-02-23T11:35:35;99859.59;;;8.97;100.00
37778;BME280;23615;51.506;7.678;2023-02-23T11:38:29;99861.22;;;8.98;100.00
37778;BME280;23615;51.506;7.678;2023-02-23T11:40:59;99860.47;;;8.91;100.00
37778;BME280;23615;51.506;7.678;2023-02-23T11:43:24;99853.13;;;8.86;100.00
37778;BME280;23615;51.506;7.678;2023-02-23T11:45:53;99857.63;;;8.86;100.00
37778;BME280;23615;51.506;7.678;2023-02-23T11:48:33;99856.53;;;8.93;100.00
37778;BME280;23615;51.506;7.678;2023-02-23T11:51:00;99856.31;;;8.95;100.00
37778;BME280;23615;51.506;7.678;2023-02-23T11:53:30;99845.94;;;8.87;100.00
37778;BME280;23615;51.506;7.678;2023-02-23T11:55:59;99850.84;;;8.90;100.00
37778;BME280;23615;51.506;7.678;2023-02-23T11:58:36;99860.22;;;8.92;100.00
37778;BME280;23615;51.506;7.678;2023-02-23T12:01:06;99852.75;;;8.83;100.00
37778;BME280;23615;51.506;7.678;2023-02-23T12:03:48;99861.38;;;8.78;100.00
37778;BME280;23615;51.506;7.678;2023-02-23T12:06:38;99857.59;;;8.61;100.00
37778;BME280;23615;51.506;7.678;2023-02-23T12:09:23;99859.94;;;8.76;100.00
37778;BME280;23615;51.506;7.678;2023-02-23T12:12:02;99862.19;;;8.79;100.00
37778;BME280;23615;51.506;7.678;2023-02-23T12:14:32;99855.16;;;8.59;100.00
37778;BME280;23615;51.506;7.678;2023-02-23T12:17:04;99853.44;;;8.72;100.00
37778;BME280;23615;51.506;7.678;2023-02-23T12:19:36;99859.03;;;8.63;100.00
37778;BME280;23615;51.506;7.678;2023-02-23T12:22:26;99851.59;;;8.72;100.00
37778;BME280;23615;51.506;7.678;2023-02-23T12:25:32;99857.19;;;8.64;100.00
37778;BME280;23615;51.506;7.678;2023-02-23T12:28:05;99850.50;;;8.55;100.00
37778;BME280;23615;51.506;7.678;2023-02-23T12:30:42;99855.28;;;8.40;100.00
37778;BME280;23615;51.506;7.678;2023-02-23T12:33:14;99846.47;;;8.39;100.00
37778;BME280;23615;51.506;7.678;2023-02-23T12:35:49;99846.88;;;8.43;100.00
37778;BME280;23615;51.506;7.678;2023-02-23T12:41:12;99860.25;;;8.61;100.00
37778;BME280;23615;51.506;7.678;2023-02-23T12:43:44;99854.38;;;8.52;100.00
37778;BME280;23615;51.506;7.678;2023-02-23T12:46:33;99853.63;;;8.39;100.00
37778;BME280;23615;51.506;7.678;2023-02-23T12:49:14;99857.22;;;8.13;100.00
37778;BME280;23615;51.506;7.678;2023-02-23T12:51:46;99859.81;;;8.33;100.00
37778;BME280;23615;51.506;7.678;2023-02-23T12:54:16;99855.69;;;8.30;100.00
37778;BME280;23615;51.506;7.678;2023-02-23T12:56:52;99848.97;;;8.34;100.00
37778;BME280;23615;51.506;7.678;2023-02-23T13:02:09;99863.66;;;8.43;100.00
37778;BME280;23615;51.506;7.678;2023-02-23T13:07:53;99863.91;;;8.35;100.00
37778;BME280;23615;51.506;7.678;2023-02-23T13:10:43;99865.16;;;8.19;100.00
37778;BME280;23615;51.506;7.678;2023-02-23T13:18:58;99859.63;;;8.21;100.00
37778;BME280;23615;51.506;7.678;2023-02-23T13:21:32;99866.66;;;8.02;100.00
37778;BME280;23615;51.506;7.678;2023-02-23T13:24:05;99861.09;;;8.17;100.00
37778;BME280;23615;51.506;7.678;2023-02-23T13:29:41;99857.66;;;8.10;100.00
37778;BME280;23615;51.506;7.678;2023-02-23T13:32:11;99864.63;;;8.04;100.00
37778;BME280;23615;51.506;7.678;2023-02-23T13:34:49;99866.66;;;8.02;100.00
37778;BME280;23615;51.506;7.678;2023-02-23T13:37:19;99867.91;;;7.93;100.00
37778;BME280;23615;51.506;7.678;2023-02-23T13:48:43;99876.44;;;8.15;100.00
37778;BME280;23615;51.506;7.678;2023-02-23T13:51:48;99875.41;;;8.16;100.00
37778;BME280;23615;51.506;7.678;2023-02-23T13:54:24;99879.50;;;8.18;100.00
37778;BME280;23615;51.506;7.678;2023-02-23T13:56:58;99879.38;;;8.00;100.00
37778;BME280;23615;51.506;7.678;2023-02-23T13:59:28;99884.31;;;7.90;100.00
37778;BME280;23615;51.506;7.678;2023-02-23T14:01:55;99891.69;;;7.81;100.00
37778;BME280;23615;51.506;7.678;2023-02-23T14:04:34;99885.28;;;7.96;100.00
37778;BME280;23615;51.506;7.678;2023-02-23T14:09:36;99896.34;;;7.86;100.00
37778;BME280;23615;51.506;7.678;2023-02-23T14:20:05;99906.38;;;7.84;100.00
37778;BME280;23615;51.506;7.678;2023-02-23T14:23:16;99898.41;;;7.84;100.00
37778;BME280;23615;51.506;7.678;2023-02-23T14:26:13;99896.41;;;7.73;100.00
37778;BME280;23615;51.506;7.678;2023-02-23T14:29:15;99899.41;;;7.83;100.00
37778;BME280;23615;51.506;7.678;2023-02-23T14:32:25;99900.38;;;8.02;100.00
37778;BME280;23615;51.506;7.678;2023-02-23T14:34:52;99895.75;;;7.91;100.00
37778;BME280;23615;51.506;7.678;2023-02-23T14:37:39;99902.91;;;7.77;100.00